sensor_id;sensor_type;location;lat;lon;timestamp;temperature;humidity
34522;DHT22;25561;48.888;8.736;2023-06-14T05:30:38;23.30;97.90
34522;DHT22;25561;48.888;8.736;2023-06-14T05:33:41;22.70;99.10
34522;DHT22;25561;48.888;8.736;2023-06-14T05:36:43;23.40;97.80
34522;DHT22;25561;48.888;8.736;2023-06-14T05:39:45;23.50;98.70
34522;DHT22;25561;48.888;8.736;2023-06-14T05:42:47;23.70;97.30
34522;DHT22;25561;48.888;8.736;2023-06-14T05:45:49;23.10;96.80
34522;DHT22;25561;48.888;8.736;2023-06-14T05:48:54;23.40;96.20
34522;DHT22;25561;48.888;8.736;2023-06-14T05:51:56;24.20;95.30
34522;DHT22;25561;48.888;8.736;2023-06-14T05:54:58;24.90;93.60
34522;DHT22;25561;48.888;8.736;2023-06-14T05:58:00;25.50;92.50
34522;DHT22;25561;48.888;8.736;2023-06-14T06:01:02;24.90;92.90
34522;DHT22;25561;48.888;8.736;2023-06-14T06:04:04;25.80;91.70
34522;DHT22;25561;48.888;8.736;2023-06-14T06:07:07;26.50;89.90
34522;DHT22;25561;48.888;8.736;2023-06-14T06:10:09;25.80;90.20
34522;DHT22;25561;48.888;8.736;2023-06-14T06:49:51;26.20;81.90
34522;DHT22;25561;48.888;8.736;2023-06-14T06:52:53;26.30;84.70
34522;DHT22;25561;48.888;8.736;2023-06-14T06:55:55;26.90;83.40
34522;DHT22;25561;48.888;8.736;2023-06-14T06:58:57;27.80;82.40
34522;DHT22;25561;48.888;8.736;2023-06-14T07:01:59;28.10;81.80
34522;DHT22;25561;48.888;8.736;2023-06-14T07:05:01;27.90;80.10
34522;DHT22;25561;48.888;8.736;2023-06-14T07:08:03;27.80;79.20
34522;DHT22;25561;48.888;8.736;2023-06-14T07:11:06;27.60;83.60
34522;DHT22;25561;48.888;8.736;2023-06-14T07:14:08;28.00;81.80
34522;DHT22;25561;48.888;8.736;2023-06-14T07:17:10;27.80;81.10
34522;DHT22;25561;48.888;8.736;2023-06-14T07:20:13;28.30;80.70
34522;DHT22;25561;48.888;8.736;2023-06-14T07:23:15;28.00;82.50
34522;DHT22;25561;48.888;8.736;2023-06-14T07:26:17;29.00;80.70
34522;DHT22;25561;48.888;8.736;2023-06-14T07:29:20;28.60;79.60
34522;DHT22;25561;48.888;8.736;2023-06-14T07:32:22;29.20;79.10
34522;DHT22;25561;48.888;8.736;2023-06-14T07:35:25;29.10;75.20
34522;DHT22;25561;48.888;8.736;2023-06-14T07:38:27;29.00;77.40
34522;DHT22;25561;48.888;8.736;2023-06-14T07:41:29;29.80;76.80
34522;DHT22;25561;48.888;8.736;2023-06-14T07:44:31;28.80;76.40
34522;DHT22;25561;48.888;8.736;2023-06-14T07:47:33;29.00;76.20
34522;DHT22;25561;48.888;8.736;2023-06-14T07:50:35;29.10;76.10
34522;DHT22;25561;48.888;8.736;2023-06-14T07:53:37;29.90;71.70
34522;DHT22;25561;48.888;8.736;2023-06-14T07:56:40;29.60;71.50
34522;DHT22;25561;48.888;8.736;2023-06-14T07:59:46;30.30;71.90
34522;DHT22;25561;48.888;8.736;2023-06-14T08:02:49;30.80;67.70
34522;DHT22;25561;48.888;8.736;2023-06-14T08:06:00;30.90;66.20
34522;DHT22;25561;48.888;8.736;2023-06-14T08:09:05;30.00;69.50
34522;DHT22;25561;48.888;8.736;2023-06-14T08:12:08;30.70;68.80
34522;DHT22;25561;48.888;8.736;2023-06-14T08:15:14;30.90;66.00
34522;DHT22;25561;48.888;8.736;2023-06-14T08:18:16;30.90;67.80
34522;DHT22;25561;48.888;8.736;2023-06-14T08:21:19;30.50;66.30
34522;DHT22;25561;48.888;8.736;2023-06-14T08:24:21;30.10;69.40
34522;DHT22;25561;48.888;8.736;2023-06-14T08:27:27;30.40;68.10
34522;DHT22;25561;48.888;8.736;2023-06-14T08:30:31;30.40;68.30
34522;DHT22;25561;48.888;8.736;2023-06-14T08:33:34;31.30;66.80
34522;DHT22;25561;48.888;8.736;2023-06-14T08:36:37;30.90;70.40
34522;DHT22;25561;48.888;8.736;2023-06-14T08:39:39;30.70;65.50
34522;DHT22;25561;48.888;8.736;2023-06-14T08:42:42;31.60;66.90
34522;DHT22;25561;48.888;8.736;2023-06-14T08:45:46;31.90;67.50
34522;DHT22;25561;48.888;8.736;2023-06-14T08:48:52;31.90;62.30
34522;DHT22;25561;48.888;8.736;2023-06-14T08:51:58;31.20;65.50
34522;DHT22;25561;48.888;8.736;2023-06-14T08:55:01;30.50;67.60
34522;DHT22;25561;48.888;8.736;2023-06-14T08:58:05;30.30;66.20
34522;DHT22;25561;48.888;8.736;2023-06-14T09:01:07;30.60;67.90
34522;DHT22;25561;48.888;8.736;2023-06-14T09:04:09;30.20;66.80
34522;DHT22;25561;48.888;8.736;2023-06-14T09:07:12;30.80;63.30
34522;DHT22;25561;48.888;8.736;2023-06-14T09:10:16;30.80;66.30
34522;DHT22;25561;48.888;8.736;2023-06-14T09:13:18;31.50;62.10
34522;DHT22;25561;48.888;8.736;2023-06-14T09:16:19;32.20;64.50
34522;DHT22;25561;48.888;8.736;2023-06-14T09:19:26;31.90;60.80
34522;DHT22;25561;48.888;8.736;2023-06-14T09:22:30;31.60;63.20
34522;DHT22;25561;48.888;8.736;2023-06-14T09:25:45;31.10;61.70
34522;DHT22;25561;48.888;8.736;2023-06-14T09:28:50;31.20;60.90
34522;DHT22;25561;48.888;8.736;2023-06-14T09:31:55;31.60;59.00
34522;DHT22;25561;48.888;8.736;2023-06-14T09:34:59;31.40;59.70
34522;DHT22;25561;48.888;8.736;2023-06-14T09:38:01;31.40;60.10
34522;DHT22;25561;48.888;8.736;2023-06-14T09:41:04;31.20;58.40
34522;DHT22;25561;48.888;8.736;2023-06-14T09:44:07;30.80;57.90
34522;DHT22;25561;48.888;8.736;2023-06-14T09:47:18;31.20;61.40
34522;DHT22;25561;48.888;8.736;2023-06-14T09:50:21;31.50;60.50
34522;DHT22;25561;48.888;8.736;2023-06-14T09:53:24;31.50;63.90
34522;DHT22;25561;48.888;8.736;2023-06-14T09:56:33;31.60;56.90
34522;DHT22;25561;48.888;8.736;2023-06-14T09:59:36;31.50;58.40
34522;DHT22;25561;48.888;8.736;2023-06-14T10:02:39;32.10;59.30
34522;DHT22;25561;48.888;8.736;2023-06-14T10:05:48;32.30;57.50
34522;DHT22;25561;48.888;8.736;2023-06-14T10:08:57;31.60;56.80
34522;DHT22;25561;48.888;8.736;2023-06-14T10:12:02;30.70;57.30
34522;DHT22;25561;48.888;8.736;2023-06-14T10:15:05;30.40;60.00
34522;DHT22;25561;48.888;8.736;2023-06-14T10:24:55;31.20;55.50
34522;DHT22;25561;48.888;8.736;2023-06-14T10:28:16;31.10;57.10
34522;DHT22;25561;48.888;8.736;2023-06-14T10:31:19;30.90;54.60
34522;DHT22;25561;48.888;8.736;2023-06-14T10:34:27;31.60;55.60
34522;DHT22;25561;48.888;8.736;2023-06-14T10:37:29;32.20;55.90
34522;DHT22;25561;48.888;8.736;2023-06-14T10:40:31;32.30;55.60
34522;DHT22;25561;48.888;8.736;2023-06-14T10:43:34;31.90;54.60
34522;DHT22;25561;48.888;8.736;2023-06-14T10:46:59;31.90;55.00
34522;DHT22;25561;48.888;8.736;2023-06-14T10:53:23;31.70;54.70
34522;DHT22;25561;48.888;8.736;2023-06-14T10:56:28;32.40;55.20
34522;DHT22;25561;48.888;8.736;2023-06-14T10:59:31;32.60;54.90
34522;DHT22;25561;48.888;8.736;2023-06-14T11:05:57;27.90;58.00
34522;DHT22;25561;48.888;8.736;2023-06-14T11:12:28;30.60;57.80
34522;DHT22;25561;48.888;8.736;2023-06-14T11:15:37;31.30;54.60
34522;DHT22;25561;48.888;8.736;2023-06-14T11:18:40;31.80;54.30
34522;DHT22;25561;48.888;8.736;2023-06-14T11:21:42;30.50;57.40
34522;DHT22;25561;48.888;8.736;2023-06-14T11:24:44;30.00;57.30
34522;DHT22;25561;48.888;8.736;2023-06-14T11:27:48;29.10;55.90
34522;DHT22;25561;48.888;8.736;2023-06-14T11:31:00;28.30;57.40
34522;DHT22;25561;48.888;8.736;2023-06-14T11:34:02;29.10;56.30
34522;DHT22;25561;48.888;8.736;2023-06-14T11:37:05;29.30;57.10
34522;DHT22;25561;48.888;8.736;2023-06-14T11:40:08;29.70;58.80
34522;DHT22;25561;48.888;8.736;2023-06-14T11:43:11;29.00;57.50
34522;DHT22;25561;48.888;8.736;2023-06-14T11:46:15;28.40;62.20
34522;DHT22;25561;48.888;8.736;2023-06-14T11:49:18;27.70;60.30
34522;DHT22;25561;48.888;8.736;2023-06-14T11:52:20;27.30;59.80
34522;DHT22;25561;48.888;8.736;2023-06-14T11:55:23;26.70;61.30
34522;DHT22;25561;48.888;8.736;2023-06-14T11:58:26;25.80;61.50
34522;DHT22;25561;48.888;8.736;2023-06-14T12:01:30;25.10;66.20
34522;DHT22;25561;48.888;8.736;2023-06-14T12:04:33;25.30;65.90
34522;DHT22;25561;48.888;8.736;2023-06-14T12:07:39;25.80;64.20
34522;DHT22;25561;48.888;8.736;2023-06-14T12:10:42;26.30;63.90
34522;DHT22;25561;48.888;8.736;2023-06-14T12:13:45;26.00;64.80
34522;DHT22;25561;48.888;8.736;2023-06-14T12:16:47;26.50;66.60
34522;DHT22;25561;48.888;8.736;2023-06-14T12:19:49;26.80;62.90
34522;DHT22;25561;48.888;8.736;2023-06-14T12:22:52;26.70;60.50
34522;DHT22;25561;48.888;8.736;2023-06-14T12:25:59;26.50;62.10
34522;DHT22;25561;48.888;8.736;2023-06-14T12:29:05;26.00;65.00
34522;DHT22;25561;48.888;8.736;2023-06-14T12:32:07;24.70;66.40
34522;DHT22;25561;48.888;8.736;2023-06-14T12:35:09;24.70;66.30
34522;DHT22;25561;48.888;8.736;2023-06-14T12:38:11;24.80;66.80
34522;DHT22;25561;48.888;8.736;2023-06-14T12:41:13;25.00;67.40
34522;DHT22;25561;48.888;8.736;2023-06-14T12:44:16;25.30;66.40
34522;DHT22;25561;48.888;8.736;2023-06-14T12:47:18;25.40;67.60
34522;DHT22;25561;48.888;8.736;2023-06-14T12:50:20;25.00;67.70
34522;DHT22;25561;48.888;8.736;2023-06-14T12:53:25;24.90;67.90
34522;DHT22;25561;48.888;8.736;2023-06-14T12:56:27;25.00;67.50
34522;DHT22;25561;48.888;8.736;2023-06-14T12:59:29;25.10;66.20
34522;DHT22;25561;48.888;8.736;2023-06-14T13:02:35;24.60;67.00
34522;DHT22;25561;48.888;8.736;2023-06-14T13:05:37;25.10;67.30
34522;DHT22;25561;48.888;8.736;2023-06-14T13:08:43;25.30;66.60
34522;DHT22;25561;48.888;8.736;2023-06-14T13:11:45;25.40;68.40
34522;DHT22;25561;48.888;8.736;2023-06-14T13:14:48;25.40;64.40
34522;DHT22;25561;48.888;8.736;2023-06-14T13:17:50;25.30;67.90
34522;DHT22;25561;48.888;8.736;2023-06-14T13:20:52;25.20;66.10
34522;DHT22;25561;48.888;8.736;2023-06-14T13:23:54;24.80;67.70
34522;DHT22;25561;48.888;8.736;2023-06-14T13:26:56;24.70;69.90
34522;DHT22;25561;48.888;8.736;2023-06-14T13:29:58;24.80;67.50
34522;DHT22;25561;48.888;8.736;2023-06-14T13:33:00;25.00;67.10
34522;DHT22;25561;48.888;8.736;2023-06-14T13:36:02;24.70;67.70
34522;DHT22;25561;48.888;8.736;2023-06-14T13:39:04;24.90;68.20
34522;DHT22;25561;48.888;8.736;2023-06-14T13:42:06;24.70;65.90
34522;DHT22;25561;48.888;8.736;2023-06-14T13:45:09;24.60;66.80
34522;DHT22;25561;48.888;8.736;2023-06-14T13:48:11;24.50;65.80
34522;DHT22;25561;48.888;8.736;2023-06-14T13:51:13;24.80;67.80
34522;DHT22;25561;48.888;8.736;2023-06-14T13:54:16;24.90;67.50
34522;DHT22;25561;48.888;8.736;2023-06-14T13:57:21;25.10;68.90
34522;DHT22;25561;48.888;8.736;2023-06-14T14:00:23;24.90;68.50
34522;DHT22;25561;48.888;8.736;2023-06-14T14:03:25;24.90;69.80
34522;DHT22;25561;48.888;8.736;2023-06-14T14:06:27;25.00;68.10
34522;DHT22;25561;48.888;8.736;2023-06-14T14:09:29;24.40;68.30
34522;DHT22;25561;48.888;8.736;2023-06-14T14:12:30;24.70;68.90
34522;DHT22;25561;48.888;8.736;2023-06-14T14:15:32;25.00;67.70
34522;DHT22;25561;48.888;8.736;2023-06-14T14:18:39;24.90;66.10
34522;DHT22;25561;48.888;8.736;2023-06-14T14:21:41;24.70;65.10
34522;DHT22;25561;48.888;8.736;2023-06-14T14:24:43;24.60;67.80
34522;DHT22;25561;48.888;8.736;2023-06-14T14:27:44;24.50;66.20
34522;DHT22;25561;48.888;8.736;2023-06-14T14:30:47;24.50;67.30
34522;DHT22;25561;48.888;8.736;2023-06-14T14:33:49;24.40;67.50
34522;DHT22;25561;48.888;8.736;2023-06-14T14:36:51;24.70;69.40
34522;DHT22;25561;48.888;8.736;2023-06-14T14:39:52;24.80;67.40
34522;DHT22;25561;48.888;8.736;2023-06-14T14:42:54;24.80;65.80
34522;DHT22;25561;48.888;8.736;2023-06-14T14:45:56;24.80;67.70
34522;DHT22;25561;48.888;8.736;2023-06-14T14:48:59;24.70;66.40
34522;DHT22;25561;48.888;8.736;2023-06-14T14:52:02;24.50;65.70
34522;DHT22;25561;48.888;8.736;2023-06-14T14:55:23;24.30;66.30
34522;DHT22;25561;48.888;8.736;2023-06-14T14:58:26;24.60;67.00
34522;DHT22;25561;48.888;8.736;2023-06-14T15:01:28;24.70;65.20
34522;DHT22;25561;48.888;8.736;2023-06-14T15:04:30;24.60;66.10
34522;DHT22;25561;48.888;8.736;2023-06-14T15:07:32;24.60;67.00
34522;DHT22;25561;48.888;8.736;2023-06-14T15:10:35;24.40;66.60
34522;DHT22;25561;48.888;8.736;2023-06-14T15:13:37;24.60;66.70
34522;DHT22;25561;48.888;8.736;2023-06-14T15:16:39;24.40;67.00
34522;DHT22;25561;48.888;8.736;2023-06-14T15:19:40;24.60;65.90
34522;DHT22;25561;48.888;8.736;2023-06-14T15:22:42;24.60;68.40
34522;DHT22;25561;48.888;8.736;2023-06-14T15:25:44;24.60;67.50
34522;DHT22;25561;48.888;8.736;2023-06-14T15:28:46;24.50;69.30
34522;DHT22;25561;48.888;8.736;2023-06-14T15:31:48;24.30;66.20
34522;DHT22;25561;48.888;8.736;2023-06-14T15:34:50;24.10;68.30
34522;DHT22;25561;48.888;8.736;2023-06-14T15:37:52;24.10;67.90
34522;DHT22;25561;48.888;8.736;2023-06-14T15:40:54;24.20;67.00
34522;DHT22;25561;48.888;8.736;2023-06-14T15:43:56;24.00;68.50
34522;DHT22;25561;48.888;8.736;2023-06-14T15:46:58;24.00;70.20
34522;DHT22;25561;48.888;8.736;2023-06-14T15:49:59;23.90;68.00
34522;DHT22;25561;48.888;8.736;2023-06-14T15:53:02;23.70;72.10
34522;DHT22;25561;48.888;8.736;2023-06-14T15:56:04;23.80;69.90
34522;DHT22;25561;48.888;8.736;2023-06-14T15:59:06;23.90;69.20
